Time;durP1;ratioP1;P1;durP2;ratioP2;P2;SDS_P1;SDS_P2;PMS_P1;PMS_P2;Temp;Humidity;BMP_temperature;BMP_pressure;BME280_temperature;BME280_humidity;BME280_pressure;Samples;Min_cycle;Max_cycle;Signal;HPM_P1;HPM_P2
2023/06/21 00:00:58;;;;;;;16.40;15.05;;;24.80;80.20;;;;;;5012741;28;20182;-86
2023/06/21 00:03:25;;;;;;;16.42;15.02;;;24.90;79.50;;;;;;5014919;28;20201;-88
2023/06/21 00:05:50;;;;;;;15.82;14.65;;;24.90;79.20;;;;;;5015909;28;20173;-88
2023/06/21 00:08:16;;;;;;;16.48;15.07;;;24.90;79.50;;;;;;5013357;28;20625;-87
2023/06/21 00:10:43;;;;;;;15.70;14.50;;;25.00;78.90;;;;;;5018975;28;20809;-86
2023/06/21 00:13:09;;;;;;;15.15;14.07;;;25.00;78.80;;;;;;5022005;28;20209;-87
2023/06/21 00:15:36;;;;;;;16.73;15.23;;;25.00;78.50;;;;;;5013775;28;20177;-86
2023/06/21 00:18:02;;;;;;;16.35;14.80;;;24.90;79.30;;;;;;5011786;28;20206;-86
2023/06/21 00:20:28;;;;;;;16.30;14.90;;;25.00;79.30;;;;;;5017596;28;20236;-88
2023/06/21 00:22:55;;;;;;;15.95;14.75;;;24.90;79.50;;;;;;5010368;28;20267;-86
2023/06/21 00:25:25;;;;;;;20.60;14.90;;;24.80;79.50;;;;;;5016247;28;20176;-87
2023/06/21 00:27:50;;;;;;;14.77;13.68;;;24.90;78.70;;;;;;5020861;28;20339;-86
2023/06/21 00:30:16;;;;;;;15.88;14.68;;;24.80;79.00;;;;;;5021794;28;20664;-86
2023/06/21 00:32:42;;;;;;;15.05;13.85;;;24.70;80.10;;;;;;5020027;28;20202;-87
2023/06/21 00:35:08;;;;;;;15.82;14.52;;;24.60;80.60;;;;;;5019962;28;20257;-86
2023/06/21 00:37:33;;;;;;;16.58;15.02;;;24.60;80.80;;;;;;5019632;28;20213;-89
2023/06/21 00:39:59;;;;;;;15.52;14.43;;;24.60;80.60;;;;;;5026770;28;20177;-87
2023/06/21 00:42:25;;;;;;;15.45;14.25;;;24.60;81.40;;;;;;5024087;28;20235;-85
2023/06/21 00:44:50;;;;;;;16.90;14.70;;;24.60;80.60;;;;;;5030842;28;20243;-86
2023/06/21 00:47:18;;;;;;;14.70;13.65;;;24.60;80.40;;;;;;5023255;28;20190;-84
2023/06/21 00:49:43;;;;;;;15.52;14.23;;;24.50;81.00;;;;;;5012546;28;20181;-86
2023/06/21 00:52:10;;;;;;;16.83;15.50;;;24.50;81.30;;;;;;5024041;28;20235;-86
2023/06/21 00:54:36;;;;;;;16.40;15.10;;;24.40;81.20;;;;;;5033266;28;20189;-87
2023/06/21 00:57:03;;;;;;;16.30;14.80;;;24.40;80.70;;;;;;5024012;28;20192;-86
2023/06/21 00:59:30;;;;;;;16.15;14.75;;;24.40;80.80;;;;;;5020382;28;20174;-86
2023/06/21 01:02:00;;;;;;;16.00;14.70;;;24.40;81.30;;;;;;5020449;28;20185;-86
2023/06/21 01:04:29;;;;;;;16.88;15.52;;;24.40;81.40;;;;;;5024824;28;20188;-87
2023/06/21 01:07:35;;;;;;;16.08;14.73;;;24.40;81.20;;;;;;5030487;28;20176;-87
2023/06/21 01:10:26;;;;;;;15.25;13.90;;;24.40;80.50;;;;;;5012896;28;20166;-87
2023/06/21 01:13:24;;;;;;;15.48;14.40;;;24.40;80.30;;;;;;5010217;28;20220;-86
2023/06/21 01:16:00;;;;;;;15.07;13.95;;;24.20;80.70;;;;;;5001884;28;20239;-87
2023/06/21 01:18:27;;;;;;;14.85;13.75;;;24.20;81.00;;;;;;5024742;28;20586;-85
2023/06/21 01:20:57;;;;;;;15.50;14.35;;;24.20;80.50;;;;;;5010605;28;20235;-87
2023/06/21 01:23:25;;;;;;;15.50;14.40;;;24.30;80.50;;;;;;5010971;28;20193;-87
2023/06/21 01:26:20;;;;;;;14.63;13.57;;;24.20;80.10;;;;;;5029768;28;20177;-86
2023/06/21 01:28:58;;;;;;;15.57;14.45;;;24.20;80.70;;;;;;5028191;28;20197;-86
2023/06/21 01:31:25;;;;;;;14.85;13.75;;;24.10;81.20;;;;;;5030156;28;20196;-86
2023/06/21 01:33:52;;;;;;;15.40;14.38;;;24.10;81.00;;;;;;5030848;28;20224;-87
2023/06/21 01:36:18;;;;;;;15.98;14.68;;;24.10;80.50;;;;;;5033112;28;20624;-86
2023/06/21 01:38:44;;;;;;;15.23;14.07;;;24.00;81.00;;;;;;5022166;28;20190;-86
2023/06/21 01:41:12;;;;;;;15.63;14.30;;;23.90;81.20;;;;;;5012705;28;20715;-87
2023/06/21 01:43:38;;;;;;;15.63;14.48;;;23.90;80.50;;;;;;5013913;28;20274;-86
2023/06/21 01:46:07;;;;;;;15.60;14.48;;;23.80;80.30;;;;;;5016614;28;20841;-87
2023/06/21 01:48:34;;;;;;;16.30;15.15;;;23.70;80.90;;;;;;5016629;28;20170;-87
2023/06/21 01:51:03;;;;;;;15.50;14.13;;;23.70;81.70;;;;;;5035676;28;20177;-86
2023/06/21 01:53:32;;;;;;;15.27;14.18;;;23.70;82.60;;;;;;5020200;28;20292;-86
2023/06/21 01:56:01;;;;;;;15.02;13.82;;;23.60;82.20;;;;;;5027753;28;20165;-84
2023/06/21 01:58:28;;;;;;;16.70;15.30;;;23.60;83.00;;;;;;5027647;28;20186;-84
2023/06/21 02:00:56;;;;;;;15.23;14.02;;;23.70;83.00;;;;;;5029723;28;20458;-86
2023/06/21 02:03:22;;;;;;;15.82;14.50;;;23.70;81.90;;;;;;5027851;28;20194;-86
2023/06/21 02:05:49;;;;;;;15.80;14.65;;;23.70;82.00;;;;;;5017162;28;20248;-86
2023/06/21 02:08:16;;;;;;;16.05;14.68;;;23.70;81.90;;;;;;5029466;28;20184;-88
2023/06/21 02:10:46;;;;;;;15.38;14.15;;;23.70;81.20;;;;;;5039211;28;20185;-90
2023/06/21 02:13:16;;;;;;;16.67;15.38;;;23.70;81.10;;;;;;5025733;28;20220;-86
2023/06/21 02:15:42;;;;;;;15.73;14.52;;;23.60;80.60;;;;;;5012968;28;20180;-86
2023/06/21 02:18:09;;;;;;;16.25;14.82;;;23.50;81.10;;;;;;5012875;28;20224;-87
2023/06/21 02:20:35;;;;;;;16.17;14.75;;;23.50;81.70;;;;;;5016350;28;20216;-86
2023/06/21 02:23:01;;;;;;;16.42;15.13;;;23.50;82.00;;;;;;5015847;28;20212;-87
2023/06/21 02:25:28;;;;;;;15.68;14.18;;;23.50;81.80;;;;;;5017165;28;20186;-86
2023/06/21 02:27:53;;;;;;;16.95;15.38;;;23.50;82.00;;;;;;5034640;28;20197;-86
2023/06/21 02:30:19;;;;;;;16.70;15.10;;;23.40;81.70;;;;;;5035989;28;20234;-87
2023/06/21 02:32:45;;;;;;;15.13;13.88;;;23.40;81.40;;;;;;5033929;28;20209;-87
2023/06/21 02:35:10;;;;;;;16.65;15.13;;;23.30;81.30;;;;;;5035569;28;20173;-86
2023/06/21 02:37:37;;;;;;;15.50;14.30;;;23.40;81.50;;;;;;5036627;28;20201;-86
2023/06/21 02:40:09;;;;;;;15.88;14.55;;;23.50;81.50;;;;;;5033346;28;20534;-87
2023/06/21 02:42:37;;;;;;;14.95;13.70;;;23.50;81.50;;;;;;5015871;28;20220;-86
2023/06/21 02:45:03;;;;;;;16.27;14.85;;;23.50;81.80;;;;;;5015582;28;20181;-86
2023/06/21 02:47:29;;;;;;;14.93;13.85;;;23.60;81.30;;;;;;5015483;28;20178;-85
2023/06/21 02:49:55;;;;;;;16.23;14.85;;;23.50;81.50;;;;;;5015504;28;20268;-85
2023/06/21 02:52:22;;;;;;;15.27;14.07;;;23.50;82.00;;;;;;5015620;28;20716;-86
2023/06/21 02:54:48;;;;;;;16.20;14.70;;;23.30;82.10;;;;;;5016603;28;20197;-87
2023/06/21 02:57:13;;;;;;;15.40;14.20;;;23.20;82.70;;;;;;5015408;28;20205;-86
2023/06/21 02:59:39;;;;;;;15.25;13.88;;;23.20;83.20;;;;;;5026948;28;20238;-86
2023/06/21 03:02:05;;;;;;;15.32;14.13;;;23.20;82.90;;;;;;5015121;28;20193;-87
2023/06/21 03:04:31;;;;;;;15.82;14.73;;;23.30;82.20;;;;;;5015839;28;20185;-86
2023/06/21 03:06:57;;;;;;;15.30;13.90;;;23.30;82.00;;;;;;5014510;28;20201;-86
2023/06/21 03:09:23;;;;;;;15.70;14.32;;;22.90;84.40;;;;;;5012048;28;20224;-86
2023/06/21 03:11:49;;;;;;;14.75;13.52;;;22.20;86.80;;;;;;5010262;28;20188;-86
2023/06/21 03:14:15;;;;;;;13.65;12.50;;;22.00;85.00;;;;;;5017749;28;20188;-86
2023/06/21 03:16:41;;;;;;;14.13;12.98;;;22.00;84.50;;;;;;5029956;28;20207;-86
2023/06/21 03:19:08;;;;;;;13.98;12.88;;;22.00;83.80;;;;;;5030085;28;20263;-86
2023/06/21 03:21:34;;;;;;;15.98;14.52;;;22.00;85.20;;;;;;5033739;28;20185;-88
2023/06/21 03:24:01;;;;;;;18.05;14.32;;;21.90;86.70;;;;;;5032831;28;20196;-87
2023/06/21 03:26:26;;;;;;;15.07;13.57;;;22.00;89.60;;;;;;5034068;28;20216;-88
2023/06/21 03:28:53;;;;;;;13.85;12.75;;;22.00;89.30;;;;;;5033280;28;20169;-87
2023/06/21 03:31:20;;;;;;;14.55;13.15;;;22.00;88.20;;;;;;5032069;28;20565;-87
2023/06/21 03:33:46;;;;;;;16.23;14.18;;;22.00;88.40;;;;;;5033004;28;20225;-86
2023/06/21 03:36:12;;;;;;;15.20;13.93;;;22.10;88.70;;;;;;5032684;28;20846;-87
2023/06/21 03:38:37;;;;;;;13.93;12.80;;;22.20;88.90;;;;;;5031962;28;20185;-88
2023/06/21 03:41:03;;;;;;;14.55;13.40;;;22.30;89.00;;;;;;5031856;28;20277;-86
2023/06/21 03:43:29;;;;;;;15.02;13.75;;;22.40;88.80;;;;;;5013970;28;20208;-87
2023/06/21 03:45:54;;;;;;;13.88;12.68;;;22.30;89.50;;;;;;5013413;28;20173;-86
2023/06/21 03:48:20;;;;;;;14.25;12.90;;;22.10;90.70;;;;;;5013520;28;20716;-88
2023/06/21 03:50:45;;;;;;;14.02;13.00;;;22.10;91.80;;;;;;5012639;28;20837;-87
2023/06/21 03:53:11;;;;;;;14.35;12.95;;;22.20;91.60;;;;;;5013058;28;20205;-86
2023/06/21 03:55:37;;;;;;;14.98;13.57;;;22.10;90.70;;;;;;5018282;28;20192;-86
2023/06/21 03:58:03;;;;;;;14.68;13.30;;;22.10;91.60;;;;;;5043113;28;20197;-87
2023/06/21 04:00:28;;;;;;;15.02;13.70;;;22.10;91.30;;;;;;5031879;28;20180;-87
2023/06/21 04:02:54;;;;;;;14.18;12.98;;;22.20;91.60;;;;;;5031495;28;20196;-88
2023/06/21 04:05:20;;;;;;;14.88;13.68;;;22.30;92.10;;;;;;5025287;28;20570;-86
2023/06/21 04:07:46;;;;;;;15.02;13.70;;;22.30;94.40;;;;;;5009749;28;20182;-88
2023/06/21 04:10:13;;;;;;;14.82;13.63;;;22.20;92.20;;;;;;5011006;28;20181;-87
2023/06/21 04:12:39;;;;;;;13.93;12.73;;;22.10;93.80;;;;;;5035516;28;20201;-87
2023/06/21 04:15:06;;;;;;;14.93;13.63;;;21.90;93.20;;;;;;5032184;28;20180;-88
2023/06/21 04:17:32;;;;;;;15.15;14.00;;;21.60;96.60;;;;;;5031144;28;20207;-88
2023/06/21 04:19:57;;;;;;;15.27;14.07;;;21.20;97.10;;;;;;5033327;28;20200;-88
2023/06/21 04:22:25;;;;;;;16.58;13.48;;;21.20;99.60;;;;;;5033659;28;20228;-88
2023/06/21 04:24:51;;;;;;;14.82;13.23;;;21.20;97.80;;;;;;5033499;28;20522;-88
2023/06/21 04:27:17;;;;;;;14.35;13.18;;;21.30;98.80;;;;;;5031814;28;20273;-88
2023/06/21 04:29:43;;;;;;;13.43;12.32;;;21.50;97.40;;;;;;5027568;28;20236;-87
2023/06/21 04:32:09;;;;;;;14.00;12.68;;;21.50;97.50;;;;;;5020320;28;20217;-86
2023/06/21 04:34:36;;;;;;;13.82;12.73;;;21.60;98.00;;;;;;5014537;28;20189;-85
2023/06/21 04:37:06;;;;;;;13.75;12.50;;;21.50;98.10;;;;;;5035943;28;20259;-87
2023/06/21 04:39:32;;;;;;;14.07;12.77;;;21.30;97.50;;;;;;5033235;28;20188;-86
2023/06/21 04:41:58;;;;;;;14.32;12.68;;;21.40;99.10;;;;;;5032032;28;20679;-85
2023/06/21 04:44:27;;;;;;;13.23;11.90;;;21.40;98.60;;;;;;5031522;28;20189;-84
2023/06/21 04:46:57;;;;;;;13.48;12.27;;;21.60;96.30;;;;;;5032286;28;20235;-87
2023/06/21 04:49:25;;;;;;;13.65;12.55;;;21.80;97.00;;;;;;5031288;28;20276;-86
2023/06/21 04:51:53;;;;;;;13.25;12.18;;;21.90;95.30;;;;;;5032376;28;20176;-86
2023/06/21 04:54:22;;;;;;;13.38;12.18;;;21.90;95.70;;;;;;5032539;28;20239;-87
2023/06/21 04:56:50;;;;;;;13.07;11.77;;;22.00;95.70;;;;;;5030367;28;20185;-86
2023/06/21 04:59:16;;;;;;;14.18;12.52;;;22.10;94.30;;;;;;5031341;28;20252;-86
2023/06/21 05:01:42;;;;;;;13.02;12.00;;;22.10;93.50;;;;;;5021135;28;20190;-88
2023/06/21 05:04:07;;;;;;;12.38;11.38;;;22.20;93.90;;;;;;5025652;28;20181;-85
2023/06/21 05:06:33;;;;;;;12.77;11.77;;;22.20;93.30;;;;;;5027257;28;20264;-85
2023/06/21 05:08:59;;;;;;;12.43;11.38;;;22.10;93.80;;;;;;5027503;28;20208;-85
2023/06/21 05:11:24;;;;;;;13.70;12.32;;;22.10;95.50;;;;;;5027262;28;20192;-85
2023/06/21 05:13:50;;;;;;;12.35;11.07;;;22.10;94.50;;;;;;5034753;28;20207;-85
2023/06/21 05:16:17;;;;;;;12.52;11.43;;;22.00;92.70;;;;;;5044443;28;20200;-85
2023/06/21 05:18:42;;;;;;;12.13;11.13;;;22.00;93.60;;;;;;5048031;28;20603;-85
2023/06/21 05:21:08;;;;;;;13.68;12.52;;;22.00;94.50;;;;;;5051468;28;20173;-85
2023/06/21 05:23:34;;;;;;;11.93;11.02;;;22.10;95.30;;;;;;5039139;28;20200;-85
2023/06/21 05:26:00;;;;;;;12.57;11.57;;;22.30;94.90;;;;;;5031507;28;20169;-83
2023/06/21 05:28:25;;;;;;;14.13;11.93;;;22.40;91.30;;;;;;5019181;28;20196;-85
2023/06/21 05:30:51;;;;;;;12.85;11.68;;;22.30;94.00;;;;;;5013633;28;20689;-85
2023/06/21 05:33:17;;;;;;;13.25;12.05;;;22.40;94.00;;;;;;5014111;28;20225;-85
2023/06/21 05:35:42;;;;;;;13.40;12.13;;;22.60;92.80;;;;;;5015109;28;20197;-84
2023/06/21 05:38:10;;;;;;;13.88;12.70;;;22.60;92.50;;;;;;5024896;28;20209;-85
2023/06/21 05:40:36;;;;;;;14.52;13.32;;;22.70;93.80;;;;;;5024075;28;20192;-85
2023/06/21 05:43:03;;;;;;;14.05;12.88;;;22.80;94.00;;;;;;5018320;28;20217;-87
2023/06/21 05:45:29;;;;;;;14.18;12.88;;;22.80;93.60;;;;;;5037032;28;20683;-85
2023/06/21 05:47:58;;;;;;;13.65;12.63;;;22.80;93.90;;;;;;5038049;28;20177;-84
2023/06/21 05:50:24;;;;;;;14.63;13.32;;;22.90;93.40;;;;;;5026622;28;20181;-84
2023/06/21 05:52:50;;;;;;;14.57;13.35;;;22.90;93.60;;;;;;5033107;28;20290;-86
2023/06/21 05:55:15;;;;;;;14.60;13.40;;;22.80;91.40;;;;;;5037203;28;20196;-84
2023/06/21 05:57:41;;;;;;;13.82;12.48;;;22.80;92.00;;;;;;5026013;28;20270;-83
2023/06/21 06:00:09;;;;;;;14.23;13.05;;;22.80;91.20;;;;;;5027683;28;20193;-84
2023/06/21 06:02:35;;;;;;;12.88;11.88;;;22.70;93.10;;;;;;5031666;28;20185;-84
2023/06/21 06:05:01;;;;;;;13.43;12.43;;;22.60;93.60;;;;;;5026404;28;20212;-85
2023/06/21 06:07:27;;;;;;;13.90;12.77;;;22.70;95.20;;;;;;5021584;28;20189;-88
2023/06/21 06:09:52;;;;;;;14.05;12.93;;;22.80;94.30;;;;;;5013674;28;20189;-86
2023/06/21 06:12:21;;;;;;;13.55;12.30;;;22.60;92.80;;;;;;5018753;28;20201;-85
2023/06/21 06:14:47;;;;;;;13.15;12.07;;;22.70;92.70;;;;;;5026606;28;20187;-84
2023/06/21 06:17:13;;;;;;;13.10;11.90;;;22.80;92.00;;;;;;5029405;28;20201;-87
2023/06/21 06:19:39;;;;;;;13.93;12.73;;;22.90;92.00;;;;;;5020673;28;20284;-85
2023/06/21 06:22:04;;;;;;;13.25;12.05;;;22.90;91.10;;;;;;5037344;28;20586;-86
2023/06/21 06:24:30;;;;;;;14.60;13.18;;;22.90;91.40;;;;;;5025902;28;20185;-84
2023/06/21 06:26:56;;;;;;;14.27;12.90;;;22.90;93.20;;;;;;5016965;28;20181;-87
2023/06/21 06:29:22;;;;;;;13.73;12.13;;;22.80;91.40;;;;;;5016861;28;20181;-84
2023/06/21 06:31:48;;;;;;;12.73;11.60;;;22.90;92.60;;;;;;5017363;28;20658;-84
2023/06/21 06:34:14;;;;;;;12.00;10.90;;;23.00;91.40;;;;;;5016604;28;20638;-87
2023/06/21 06:36:40;;;;;;;11.80;11.00;;;23.00;89.80;;;;;;5026318;28;20201;-86
2023/06/21 06:39:06;;;;;;;12.40;11.50;;;23.00;91.60;;;;;;5028312;28;20180;-85
2023/06/21 06:41:32;;;;;;;13.15;11.93;;;23.00;91.30;;;;;;5033101;28;20674;-84
2023/06/21 06:43:58;;;;;;;10.50;9.70;;;23.00;90.30;;;;;;5035608;28;20196;-86
2023/06/21 06:46:24;;;;;;;12.68;11.23;;;22.90;90.20;;;;;;5027996;28;20217;-86
2023/06/21 06:48:50;;;;;;;10.82;9.73;;;22.90;91.40;;;;;;5031885;28;20220;-87
2023/06/21 06:51:15;;;;;;;10.77;9.88;;;22.80;91.10;;;;;;5031692;28;20243;-85
2023/06/21 06:53:42;;;;;;;12.00;10.93;;;22.60;90.50;;;;;;5028409;28;20568;-86
2023/06/21 06:56:07;;;;;;;10.90;10.00;;;22.60;91.20;;;;;;5010901;28;20189;-87
2023/06/21 06:58:35;;;;;;;11.40;10.40;;;22.70;91.30;;;;;;5003382;28;20295;-85
2023/06/21 07:01:03;;;;;;;13.45;11.35;;;22.70;92.20;;;;;;5001159;28;20186;-86
2023/06/21 07:03:29;;;;;;;11.88;10.77;;;22.80;93.20;;;;;;5003559;28;20223;-85
2023/06/21 07:05:55;;;;;;;11.98;10.77;;;22.60;91.70;;;;;;5007210;28;20206;-86
2023/06/21 07:08:21;;;;;;;12.50;11.40;;;22.70;91.50;;;;;;5008761;28;20206;-85
2023/06/21 07:10:46;;;;;;;13.50;12.30;;;22.80;92.50;;;;;;5008091;28;20252;-87
2023/06/21 07:13:12;;;;;;;12.80;11.90;;;23.00;92.00;;;;;;5017239;28;20250;-86
2023/06/21 07:15:38;;;;;;;12.52;11.32;;;23.10;88.90;;;;;;5009415;28;20233;-85
2023/06/21 07:18:04;;;;;;;13.77;11.25;;;23.10;89.00;;;;;;5006839;28;20233;-85
2023/06/21 07:20:31;;;;;;;12.93;11.82;;;23.00;90.00;;;;;;5012387;28;20192;-86
2023/06/21 07:22:57;;;;;;;13.15;11.98;;;22.90;91.10;;;;;;5010056;28;20197;-85
2023/06/21 07:25:23;;;;;;;13.05;11.77;;;23.10;91.30;;;;;;5010076;28;20177;-85
2023/06/21 07:27:49;;;;;;;12.80;11.68;;;23.10;90.70;;;;;;5014216;28;20189;-87
2023/06/21 07:30:16;;;;;;;12.77;11.68;;;23.20;90.30;;;;;;5011726;28;20184;-86
2023/06/21 07:32:42;;;;;;;13.02;11.98;;;23.40;91.20;;;;;;5010438;28;20217;-85
2023/06/21 07:35:08;;;;;;;13.32;11.38;;;23.60;89.90;;;;;;5014448;28;20240;-86
2023/06/21 07:37:34;;;;;;;13.50;12.20;;;23.60;91.00;;;;;;5007009;28;20677;-84
2023/06/21 07:40:00;;;;;;;13.15;11.98;;;23.80;88.60;;;;;;5008121;28;20243;-85
2023/06/21 07:42:26;;;;;;;13.35;12.23;;;23.80;85.90;;;;;;5012053;28;20244;-85
2023/06/21 07:44:53;;;;;;;13.80;12.50;;;23.70;88.70;;;;;;5012058;28;20181;-84
2023/06/21 07:47:19;;;;;;;13.60;12.40;;;23.70;88.00;;;;;;5011848;28;20188;-84
2023/06/21 07:49:45;;;;;;;14.88;13.55;;;23.50;89.10;;;;;;5003312;28;20344;-87
2023/06/21 07:52:11;;;;;;;13.63;12.52;;;23.40;88.50;;;;;;5013547;28;20323;-85
2023/06/21 07:54:37;;;;;;;12.32;11.32;;;23.30;90.10;;;;;;5011481;28;20192;-85
2023/06/21 07:57:03;;;;;;;13.57;12.40;;;23.50;88.10;;;;;;5001204;28;20205;-84
2023/06/21 07:59:31;;;;;;;14.13;12.57;;;23.60;86.20;;;;;;4997366;28;20320;-86
2023/06/21 08:01:56;;;;;;;12.57;11.63;;;23.70;87.30;;;;;;5005241;28;20185;-85
2023/06/21 08:04:22;;;;;;;13.57;12.38;;;23.80;86.20;;;;;;5000848;28;20189;-85
2023/06/21 08:06:48;;;;;;;13.63;12.27;;;23.80;85.80;;;;;;4998655;28;21080;-84
2023/06/21 08:09:13;;;;;;;13.68;12.30;;;23.70;84.70;;;;;;4999636;28;20212;-86
2023/06/21 08:11:39;;;;;;;13.60;12.43;;;23.60;86.30;;;;;;5000441;28;20193;-87
2023/06/21 08:14:04;;;;;;;14.68;13.18;;;23.60;86.20;;;;;;5000521;28;20236;-87
2023/06/21 08:16:31;;;;;;;14.60;13.32;;;23.30;88.50;;;;;;5000598;28;20198;-85
2023/06/21 08:18:57;;;;;;;13.38;11.93;;;23.20;89.40;;;;;;4996494;28;20181;-85
2023/06/21 08:21:22;;;;;;;14.63;12.55;;;23.30;85.50;;;;;;5010637;28;20195;-85
2023/06/21 08:23:48;;;;;;;14.75;13.38;;;23.20;87.00;;;;;;5006311;28;20208;-86
2023/06/21 08:26:14;;;;;;;13.95;12.85;;;23.30;88.60;;;;;;5002583;28;20280;-85
2023/06/21 08:28:39;;;;;;;14.20;12.90;;;23.30;89.50;;;;;;4989810;28;20280;-84
2023/06/21 08:31:05;;;;;;;15.43;14.02;;;23.30;88.90;;;;;;4999425;28;20248;-84
2023/06/21 08:33:31;;;;;;;13.35;12.35;;;23.30;90.50;;;;;;4996448;28;20237;-85
2023/06/21 08:35:56;;;;;;;14.55;12.20;;;23.30;89.80;;;;;;4994847;28;20217;-81
2023/06/21 08:38:22;;;;;;;12.73;11.82;;;23.20;89.60;;;;;;5002817;28;20231;-87
2023/06/21 08:40:48;;;;;;;13.38;12.07;;;23.20;89.10;;;;;;5000836;28;20205;-85
2023/06/21 08:43:14;;;;;;;11.10;10.20;;;23.20;89.00;;;;;;4994532;28;20229;-86
2023/06/21 08:45:39;;;;;;;12.48;11.32;;;23.40;84.20;;;;;;5000911;28;20192;-82
2023/06/21 08:48:06;;;;;;;12.27;11.23;;;23.50;86.30;;;;;;4992548;28;20185;-85
2023/06/21 08:50:36;;;;;;;12.35;11.40;;;23.30;84.80;;;;;;4990999;28;20193;-85
2023/06/21 08:53:06;;;;;;;12.95;11.77;;;23.50;85.90;;;;;;4992850;28;20260;-85
2023/06/21 08:55:35;;;;;;;13.23;12.23;;;23.90;83.70;;;;;;4996230;28;20195;-86
2023/06/21 08:58:12;;;;;;;12.45;11.35;;;23.90;83.40;;;;;;4995772;28;20261;-85
2023/06/21 09:00:43;;;;;;;11.43;10.57;;;23.90;81.90;;;;;;4993898;28;20189;-86
2023/06/21 09:03:32;;;;;;;12.00;11.10;;;23.90;81.20;;;;;;4996387;28;20578;-85
2023/06/21 09:06:26;;;;;;;11.55;10.52;;;23.90;80.20;;;;;;5000060;28;20818;-85
2023/06/21 09:08:53;;;;;;;11.70;10.80;;;23.90;79.60;;;;;;4994405;28;20263;-84
2023/06/21 09:11:21;;;;;;;11.75;10.85;;;23.90;79.90;;;;;;5004126;28;20193;-84
2023/06/21 09:13:48;;;;;;;12.00;10.85;;;23.70;79.60;;;;;;4999904;28;20213;-85
2023/06/21 09:16:13;;;;;;;11.65;10.57;;;23.60;79.80;;;;;;4999082;28;20342;-85
2023/06/21 09:18:43;;;;;;;11.48;10.57;;;23.90;79.30;;;;;;4993479;28;20753;-86
2023/06/21 09:21:10;;;;;;;11.55;10.75;;;24.10;80.20;;;;;;5002918;28;20193;-86
2023/06/21 09:23:36;;;;;;;11.90;11.10;;;24.30;77.90;;;;;;4997669;28;20306;-85
2023/06/21 09:26:03;;;;;;;12.80;11.73;;;24.50;78.50;;;;;;5004579;28;20779;-86
2023/06/21 09:28:29;;;;;;;11.57;10.75;;;24.50;77.00;;;;;;5000229;28;20319;-85
2023/06/21 09:30:55;;;;;;;12.93;11.73;;;24.50;77.30;;;;;;5001409;28;21952;-87
2023/06/21 09:33:24;;;;;;;12.50;11.40;;;24.40;77.10;;;;;;5003858;28;20212;-85
2023/06/21 09:35:50;;;;;;;12.70;11.73;;;24.10;79.20;;;;;;5003179;28;20193;-86
2023/06/21 09:38:22;;;;;;;13.13;12.02;;;24.20;78.60;;;;;;4995319;28;20217;-87
2023/06/21 09:40:48;;;;;;;12.60;11.55;;;24.40;78.40;;;;;;4996152;28;20228;-86
2023/06/21 09:43:13;;;;;;;13.88;12.50;;;24.20;80.40;;;;;;5001401;28;20236;-86
2023/06/21 09:45:39;;;;;;;13.20;12.25;;;24.10;80.10;;;;;;4999047;28;20810;-85
2023/06/21 09:48:05;;;;;;;13.70;12.52;;;24.10;81.10;;;;;;4990769;28;20194;-86
2023/06/21 09:50:41;;;;;;;13.05;12.05;;;23.90;83.10;;;;;;4995255;28;20257;-85
2023/06/21 09:53:11;;;;;;;14.35;12.85;;;24.00;84.70;;;;;;4994289;28;20228;-84
2023/06/21 09:55:43;;;;;;;13.95;12.55;;;24.00;83.00;;;;;;4999996;28;20212;-85
2023/06/21 09:58:08;;;;;;;12.82;11.90;;;24.20;82.10;;;;;;4993792;28;20228;-83
2023/06/21 10:00:38;;;;;;;13.65;12.40;;;24.40;81.00;;;;;;5002849;28;20232;-85
2023/06/21 10:03:04;;;;;;;12.27;11.35;;;24.50;78.80;;;;;;4999281;28;20206;-85
2023/06/21 10:05:30;;;;;;;13.35;12.32;;;24.70;78.80;;;;;;5001831;28;20173;-86
2023/06/21 10:07:57;;;;;;;14.15;12.95;;;24.60;79.30;;;;;;5001787;28;20635;-85
2023/06/21 10:10:23;;;;;;;15.45;14.02;;;24.50;80.40;;;;;;5006567;28;20316;-85
2023/06/21 10:12:53;;;;;;;15.40;14.20;;;24.50;81.10;;;;;;5004913;28;20312;-87
2023/06/21 10:15:19;;;;;;;14.90;13.85;;;24.50;80.60;;;;;;5005516;28;20181;-88
2023/06/21 10:17:48;;;;;;;15.48;14.18;;;24.50;80.50;;;;;;5002582;28;20340;-84
2023/06/21 10:20:14;;;;;;;15.65;14.50;;;24.70;79.60;;;;;;5008541;28;20272;-86
2023/06/21 10:22:45;;;;;;;15.88;14.57;;;24.80;78.80;;;;;;5001399;28;20222;-85
2023/06/21 10:25:11;;;;;;;15.95;14.70;;;24.90;79.10;;;;;;5008063;28;20185;-85
2023/06/21 10:27:38;;;;;;;17.33;15.93;;;24.80;78.30;;;;;;5001057;28;20221;-85
2023/06/21 10:30:07;;;;;;;16.70;15.20;;;24.70;79.00;;;;;;5000149;28;20212;-85
2023/06/21 10:32:34;;;;;;;17.33;16.00;;;24.60;79.80;;;;;;5003190;28;20219;-85
2023/06/21 10:35:11;;;;;;;16.67;15.27;;;24.50;80.20;;;;;;5007802;28;20201;-84
2023/06/21 10:37:48;;;;;;;17.10;15.48;;;24.50;80.00;;;;;;5005358;28;20197;-84
2023/06/21 10:40:15;;;;;;;16.65;15.50;;;24.70;80.70;;;;;;5015191;28;20587;-85
2023/06/21 10:42:45;;;;;;;17.30;15.77;;;24.70;80.10;;;;;;5001256;28;20300;-86
2023/06/21 10:45:12;;;;;;;16.90;15.65;;;25.00;80.10;;;;;;5003961;28;20189;-86
2023/06/21 10:47:39;;;;;;;17.27;15.77;;;25.40;77.90;;;;;;5004908;28;20189;-85
2023/06/21 10:50:09;;;;;;;18.73;17.08;;;25.50;76.70;;;;;;5007850;28;20193;-86
2023/06/21 10:52:36;;;;;;;18.75;17.10;;;25.50;76.90;;;;;;5010473;28;20236;-85
2023/06/21 10:55:03;;;;;;;18.65;16.95;;;25.60;77.50;;;;;;5016863;28;20173;-85
2023/06/21 10:57:32;;;;;;;18.33;16.83;;;25.70;76.60;;;;;;5021853;28;21061;-86
2023/06/21 11:00:01;;;;;;;17.25;15.95;;;25.80;75.30;;;;;;4999236;28;20185;-86
2023/06/21 11:02:30;;;;;;;18.35;16.75;;;26.00;75.50;;;;;;5007018;28;20256;-85
2023/06/21 11:05:14;;;;;;;17.50;16.20;;;25.90;74.80;;;;;;5007417;28;20638;-86
2023/06/21 11:08:04;;;;;;;18.75;17.35;;;26.10;75.80;;;;;;5005958;28;20192;-85
2023/06/21 11:10:49;;;;;;;20.00;18.42;;;26.50;72.80;;;;;;5005573;28;20189;-85
2023/06/21 11:13:17;;;;;;;19.10;17.40;;;26.40;71.50;;;;;;5003427;28;20209;-84
2023/06/21 11:15:47;;;;;;;18.33;16.92;;;26.50;72.80;;;;;;5002663;28;20285;-85
2023/06/21 11:18:19;;;;;;;18.60;17.20;;;27.00;70.20;;;;;;4998811;28;20198;-86
2023/06/21 11:20:49;;;;;;;17.10;15.60;;;27.10;69.40;;;;;;5010948;28;20181;-86
2023/06/21 11:23:19;;;;;;;16.10;14.85;;;26.90;70.60;;;;;;5002783;28;20209;-85
2023/06/21 11:26:14;;;;;;;14.50;13.38;;;26.90;69.20;;;;;;5008689;28;20209;-85
2023/06/21 11:28:45;;;;;;;13.32;12.23;;;27.20;67.50;;;;;;4990319;28;20208;-84
2023/06/21 11:31:14;;;;;;;13.10;12.20;;;27.50;64.20;;;;;;5005213;28;20209;-85
2023/06/21 11:33:57;;;;;;;13.75;12.75;;;27.60;64.20;;;;;;5007904;28;20701;-87
2023/06/21 11:36:31;;;;;;;12.25;11.35;;;27.70;64.50;;;;;;5000460;28;20204;-86
2023/06/21 11:39:10;;;;;;;12.20;11.30;;;28.00;63.30;;;;;;4993142;28;20211;-82
2023/06/21 11:41:45;;;;;;;13.13;12.00;;;28.40;60.80;;;;;;5005933;28;20208;-85
2023/06/21 11:44:27;;;;;;;11.55;10.57;;;28.90;58.30;;;;;;4998739;28;20177;-85
2023/06/21 11:47:22;;;;;;;10.73;9.93;;;29.00;56.90;;;;;;5002389;28;20272;-86
2023/06/21 11:49:58;;;;;;;11.70;10.85;;;29.10;57.60;;;;;;4990487;28;20207;-84
2023/06/21 11:52:31;;;;;;;11.63;10.93;;;29.00;56.20;;;;;;4998999;28;20236;-85
2023/06/21 11:55:01;;;;;;;12.10;11.30;;;29.40;55.50;;;;;;4996141;28;20193;-85
2023/06/21 11:57:27;;;;;;;11.05;10.32;;;29.20;56.60;;;;;;5001612;28;20221;-85
2023/06/21 11:59:54;;;;;;;10.85;10.10;;;29.10;58.00;;;;;;4999271;28;20192;-85
2023/06/21 12:02:20;;;;;;;11.25;10.52;;;29.50;53.50;;;;;;4999177;28;21148;-86
2023/06/21 12:04:48;;;;;;;11.55;10.68;;;30.00;54.30;;;;;;5004243;28;20189;-85
2023/06/21 12:07:15;;;;;;;12.40;11.70;;;30.60;50.90;;;;;;5003247;28;20205;-85
2023/06/21 12:09:50;;;;;;;12.32;11.43;;;30.80;51.00;;;;;;5002822;28;20723;-87
2023/06/21 12:12:16;;;;;;;10.35;9.75;;;31.10;49.70;;;;;;5001907;28;20216;-85
2023/06/21 12:14:42;;;;;;;11.50;10.90;;;31.20;48.40;;;;;;5007031;28;20227;-85
2023/06/21 12:17:08;;;;;;;11.25;10.55;;;31.00;48.70;;;;;;5009369;28;20268;-85
2023/06/21 12:19:33;;;;;;;10.73;10.15;;;31.20;47.30;;;;;;5002046;28;20230;-87
2023/06/21 12:22:03;;;;;;;10.55;9.95;;;30.80;47.10;;;;;;5005596;28;20192;-86
2023/06/21 12:24:30;;;;;;;10.70;9.90;;;30.80;47.20;;;;;;5004897;28;20178;-86
2023/06/21 12:26:58;;;;;;;10.23;9.55;;;30.90;46.50;;;;;;5005087;28;20189;-85
2023/06/21 12:29:25;;;;;;;10.35;9.85;;;31.30;46.60;;;;;;4994350;28;20201;-86
2023/06/21 12:31:53;;;;;;;11.38;10.68;;;31.60;45.70;;;;;;5001938;28;20555;-86